Time;durP1;ratioP1;P1;durP2;ratioP2;P2;SDS_P1;SDS_P2;PMS_P1;PMS_P2;Temp;Humidity;BMP_temperature;BMP_pressure;BME280_temperature;BME280_humidity;BME280_pressure;Samples;Min_cycle;Max_cycle;Signal;HPM_P1;HPM_P2
2022/02/25 00:05:50;;;;;;;;;0.00;0.00;;;;;;;;2;261077182;261077182;-81
2022/02/25 00:15:18;;;;;;;;;0.00;0.00;;;;;;;;2;288083025;288083025;-81
2022/02/25 00:23:33;;;;;;;;;0.00;0.00;;;;;;;;2;261077481;261077481;-81
2022/02/25 00:33:00;;;;;;;;;0.00;0.00;;;;;;;;2;288083061;288083061;-81
2022/02/25 00:41:16;;;;;;;;;0.00;0.00;;;;;;;;2;261079541;261079541;-82
2022/02/25 00:50:44;;;;;;;;;0.00;0.00;;;;;;;;2;288084191;288084191;-82
2022/02/25 00:58:59;;;;;;;;;0.00;0.00;;;;;;;;2;261075459;261075459;-80
2022/02/25 01:08:27;;;;;;;;;0.00;0.00;;;;;;;;2;288086939;288086939;-81
2022/02/25 01:16:42;;;;;;;;;0.00;0.00;;;;;;;;2;261077945;261077945;-80
2022/02/25 01:26:10;;;;;;;;;0.00;0.00;;;;;;;;2;288085323;288085323;-81
2022/02/25 01:34:25;;;;;;;;;0.00;0.00;;;;;;;;2;261076938;261076938;-80
2022/02/25 01:44:09;;;;;;;;;0.00;0.00;;;;;;;;2;288089933;288089933;-82
2022/02/25 01:52:24;;;;;;;;;0.00;0.00;;;;;;;;2;261073740;261073740;-82
2022/02/25 02:01:52;;;;;;;;;0.00;0.00;;;;;;;;2;288082003;288082003;-83
2022/02/25 02:10:07;;;;;;;;;0.00;0.00;;;;;;;;2;261079760;261079760;-82
2022/02/25 02:19:35;;;;;;;;;0.00;0.00;;;;;;;;2;288085225;288085225;-82
2022/02/25 02:37:37;;;;;;;;;0.00;0.00;;;;;;;;2;288084275;288084275;-81
2022/02/25 02:45:52;;;;;;;;;0.00;0.00;;;;;;;;2;261077074;261077074;-81
2022/02/25 02:55:20;;;;;;;;;0.00;0.00;;;;;;;;2;288085436;288085436;-81
2022/02/25 03:03:36;;;;;;;;;0.00;0.00;;;;;;;;2;261076243;261076243;-81
2022/02/25 03:13:04;;;;;;;;;0.00;0.00;;;;;;;;2;288082251;288082251;-81
2022/02/25 03:21:20;;;;;;;;;0.00;0.00;;;;;;;;2;261076833;261076833;-81
2022/02/25 03:30:47;;;;;;;;;0.00;0.00;;;;;;;;2;288082514;288082514;-82
2022/02/25 03:39:03;;;;;;;;;0.00;0.00;;;;;;;;2;261074813;261074813;-82
2022/02/25 03:48:31;;;;;;;;;0.00;0.00;;;;;;;;2;288083253;288083253;-82
2022/02/25 03:56:48;;;;;;;;;0.00;0.00;;;;;;;;2;261079296;261079296;-82
2022/02/25 04:06:15;;;;;;;;;0.00;0.00;;;;;;;;2;288082706;288082706;-81
2022/02/25 04:14:31;;;;;;;;;0.00;0.00;;;;;;;;2;261076018;261076018;-82
2022/02/25 04:23:58;;;;;;;;;0.00;0.00;;;;;;;;2;288084086;288084086;-82
2022/02/25 04:32:14;;;;;;;;;0.00;0.00;;;;;;;;2;261075090;261075090;-83
2022/02/25 04:41:41;;;;;;;;;0.00;0.00;;;;;;;;2;288082579;288082579;-82
2022/02/25 04:49:57;;;;;;;;;0.00;0.00;;;;;;;;2;261076249;261076249;-82
2022/02/25 04:59:24;;;;;;;;;0.00;0.00;;;;;;;;2;288085428;288085428;-81
2022/02/25 05:07:39;;;;;;;;;0.00;0.00;;;;;;;;2;261073661;261073661;-82
2022/02/25 05:25:41;;;;;;;;;0.00;0.00;;;;;;;;2;261073755;261073755;-81
2022/02/25 05:35:09;;;;;;;;;0.00;0.00;;;;;;;;2;288081882;288081882;-81
2022/02/25 05:43:25;;;;;;;;;0.00;0.00;;;;;;;;2;261075547;261075547;-81
2022/02/25 05:52:59;;;;;;;;;0.00;0.00;;;;;;;;2;288081450;288081450;-81
2022/02/25 06:01:14;;;;;;;;;0.00;0.00;;;;;;;;2;261081537;261081537;-81
2022/02/25 06:10:42;;;;;;;;;0.00;0.00;;;;;;;;2;288084679;288084679;-81
2022/02/25 06:18:57;;;;;;;;;0.00;0.00;;;;;;;;2;261076809;261076809;-81
2022/02/25 06:28:25;;;;;;;;;0.00;0.00;;;;;;;;2;288084662;288084662;-81
2022/02/25 06:36:41;;;;;;;;;0.00;0.00;;;;;;;;2;261078544;261078544;-81
2022/02/25 06:46:11;;;;;;;;;0.00;0.00;;;;;;;;2;288082298;288082298;-82
2022/02/25 06:54:26;;;;;;;;;0.00;0.00;;;;;;;;2;261080584;261080584;-82
2022/02/25 07:03:54;;;;;;;;;0.00;0.00;;;;;;;;2;288084229;288084229;-79
2022/02/25 07:12:09;;;;;;;;;0.00;0.00;;;;;;;;2;261077482;261077482;-79
2022/02/25 07:21:37;;;;;;;;;0.00;0.00;;;;;;;;2;288083944;288083944;-78
2022/02/25 07:29:52;;;;;;;;;0.00;0.00;;;;;;;;2;261077859;261077859;-79
2022/02/25 07:39:20;;;;;;;;;0.00;0.00;;;;;;;;2;288081123;288081123;-79
2022/02/25 07:47:38;;;;;;;;;0.00;0.00;;;;;;;;2;261078251;261078251;-79
2022/02/25 07:57:06;;;;;;;;;0.00;0.00;;;;;;;;2;288086103;288086103;-79
2022/02/25 08:05:21;;;;;;;;;0.00;0.00;;;;;;;;2;261078028;261078028;-79
2022/02/25 08:14:49;;;;;;;;;0.00;0.00;;;;;;;;2;288083928;288083928;-80
2022/02/25 08:23:04;;;;;;;;;0.00;0.00;;;;;;;;2;261076855;261076855;-79
2022/02/25 08:32:32;;;;;;;;;0.00;0.00;;;;;;;;2;288085556;288085556;-79
2022/02/25 08:40:47;;;;;;;;;0.00;0.00;;;;;;;;2;261075191;261075191;-80
2022/02/25 08:50:17;;;;;;;;;0.00;0.00;;;;;;;;2;288081504;288081504;-80
2022/02/25 08:58:33;;;;;;;;;0.00;0.00;;;;;;;;2;261078283;261078283;-79
2022/02/25 09:08:01;;;;;;;;;0.00;0.00;;;;;;;;2;288091688;288091688;-80
2022/02/25 09:16:17;;;;;;;;;0.00;0.00;;;;;;;;2;261079337;261079337;-80
2022/02/25 09:25:44;;;;;;;;;0.00;0.00;;;;;;;;2;288085987;288085987;-81
2022/02/25 09:34:00;;;;;;;;;0.00;0.00;;;;;;;;2;261076607;261076607;-80
2022/02/25 09:43:29;;;;;;;;;0.00;0.00;;;;;;;;2;288083781;288083781;-81
2022/02/25 09:51:47;;;;;;;;;0.00;0.00;;;;;;;;2;261077518;261077518;-80
2022/02/25 10:01:15;;;;;;;;;0.00;0.00;;;;;;;;2;288081938;288081938;-79
2022/02/25 10:09:38;;;;;;;;;0.00;0.00;;;;;;;;2;261077031;261077031;-79
2022/02/25 10:19:06;;;;;;;;;0.00;0.00;;;;;;;;2;288084600;288084600;-80
2022/02/25 10:27:26;;;;;;;;;0.00;0.00;;;;;;;;2;261076097;261076097;-80
2022/02/25 10:36:55;;;;;;;;;0.00;0.00;;;;;;;;2;288084093;288084093;-79
2022/02/25 10:45:10;;;;;;;;;0.00;0.00;;;;;;;;2;261075869;261075869;-82
2022/02/25 10:54:39;;;;;;;;;0.00;0.00;;;;;;;;2;288084917;288084917;-81
2022/02/25 11:02:59;;;;;;;;;0.00;0.00;;;;;;;;2;261076958;261076958;-81
2022/02/25 11:12:28;;;;;;;;;0.00;0.00;;;;;;;;2;288084476;288084476;-81
2022/02/25 11:20:44;;;;;;;;;0.00;0.00;;;;;;;;2;261079482;261079482;-76
2022/02/25 11:30:17;;;;;;;;;0.00;0.00;;;;;;;;2;288086516;288086516;-81
2022/02/25 11:38:40;;;;;;;;;0.00;0.00;;;;;;;;2;261077665;261077665;-80
2022/02/25 11:48:07;;;;;;;;;0.00;0.00;;;;;;;;2;288086517;288086517;-81
2022/02/25 11:56:27;;;;;;;;;0.00;0.00;;;;;;;;2;261075883;261075883;-80
2022/02/25 12:05:54;;;;;;;;;0.00;0.00;;;;;;;;2;288084561;288084561;-82
2022/02/25 12:14:10;;;;;;;;;0.00;0.00;;;;;;;;2;261075896;261075896;-81
2022/02/25 12:23:41;;;;;;;;;0.00;0.00;;;;;;;;2;288086486;288086486;-81
2022/02/25 12:31:57;;;;;;;;;0.00;0.00;;;;;;;;2;261074728;261074728;-81
2022/02/25 12:41:32;;;;;;;;;0.00;0.00;;;;;;;;2;288084102;288084102;-81
2022/02/25 12:49:47;;;;;;;;;0.00;0.00;;;;;;;;2;261078236;261078236;-81
2022/02/25 12:59:17;;;;;;;;;0.00;0.00;;;;;;;;2;288085527;288085527;-81
2022/02/25 13:07:32;;;;;;;;;0.00;0.00;;;;;;;;2;261072531;261072531;-81
2022/02/25 13:17:04;;;;;;;;;0.00;0.00;;;;;;;;2;288084221;288084221;-81
2022/02/25 13:25:24;;;;;;;;;0.00;0.00;;;;;;;;2;261078267;261078267;-82
2022/02/25 13:34:51;;;;;;;;;0.00;0.00;;;;;;;;2;288085740;288085740;-82
2022/02/25 13:43:21;;;;;;;;;0.00;0.00;;;;;;;;2;261077222;261077222;-81
2022/02/25 13:52:56;;;;;;;;;0.00;0.00;;;;;;;;2;288084328;288084328;-80
2022/02/25 14:01:16;;;;;;;;;0.00;0.00;;;;;;;;2;261076507;261076507;-80
2022/02/25 14:10:44;;;;;;;;;0.00;0.00;;;;;;;;2;288083888;288083888;-79
2022/02/25 14:19:18;;;;;;;;;0.00;0.00;;;;;;;;2;261080083;261080083;-81
2022/02/25 14:28:45;;;;;;;;;0.00;0.00;;;;;;;;2;288086787;288086787;-79
2022/02/25 14:37:01;;;;;;;;;0.00;0.00;;;;;;;;2;261079763;261079763;-81
2022/02/25 14:46:28;;;;;;;;;0.00;0.00;;;;;;;;2;288086329;288086329;-80
2022/02/25 14:54:44;;;;;;;;;0.00;0.00;;;;;;;;2;261078207;261078207;-80
2022/02/25 15:04:12;;;;;;;;;0.00;0.00;;;;;;;;2;288084985;288084985;-80
2022/02/25 15:12:27;;;;;;;;;0.00;0.00;;;;;;;;2;261078701;261078701;-78
2022/02/25 15:21:56;;;;;;;;;0.00;0.00;;;;;;;;2;288086276;288086276;-80
2022/02/25 15:30:13;;;;;;;;;0.00;0.00;;;;;;;;2;261076216;261076216;-79
2022/02/25 15:39:40;;;;;;;;;0.00;0.00;;;;;;;;2;288083411;288083411;-79
2022/02/25 15:47:55;;;;;;;;;0.00;0.00;;;;;;;;2;261077602;261077602;-79
2022/02/25 15:57:23;;;;;;;;;0.00;0.00;;;;;;;;2;288084296;288084296;-81
2022/02/25 16:05:39;;;;;;;;;0.00;0.00;;;;;;;;2;261075685;261075685;-80
2022/02/25 16:15:09;;;;;;;;;0.00;0.00;;;;;;;;2;288082654;288082654;-79
2022/02/25 16:23:24;;;;;;;;;0.00;0.00;;;;;;;;2;261077314;261077314;-81
2022/02/25 16:32:52;;;;;;;;;0.00;0.00;;;;;;;;2;288083600;288083600;-81
2022/02/25 16:44:28;;;;;;;;;0.00;0.00;;;;;;;;2;261074834;261074834;-81
2022/02/25 16:53:55;;;;;;;;;0.00;0.00;;;;;;;;2;288083680;288083680;-81
2022/02/25 17:02:13;;;;;;;;;0.00;0.00;;;;;;;;2;261077974;261077974;-83
2022/02/25 17:11:42;;;;;;;;;0.00;0.00;;;;;;;;2;288085527;288085527;-80
2022/02/25 17:19:58;;;;;;;;;0.00;0.00;;;;;;;;2;261076629;261076629;-78
2022/02/25 17:29:25;;;;;;;;;0.00;0.00;;;;;;;;2;288083602;288083602;-80
2022/02/25 17:37:41;;;;;;;;;0.00;0.00;;;;;;;;2;261078318;261078318;-80
2022/02/25 17:47:09;;;;;;;;;0.00;0.00;;;;;;;;2;288086880;288086880;-79
2022/02/25 17:55:25;;;;;;;;;0.00;0.00;;;;;;;;2;261079051;261079051;-80
2022/02/25 18:04:52;;;;;;;;;0.00;0.00;;;;;;;;2;288082760;288082760;-80
2022/02/25 18:13:08;;;;;;;;;0.00;0.00;;;;;;;;2;261073663;261073663;-81
2022/02/25 18:22:35;;;;;;;;;0.00;0.00;;;;;;;;2;288083405;288083405;-80
2022/02/25 18:30:51;;;;;;;;;0.00;0.00;;;;;;;;2;261075463;261075463;-80
2022/02/25 18:40:18;;;;;;;;;0.00;0.00;;;;;;;;2;288082485;288082485;-80
2022/02/25 18:48:34;;;;;;;;;0.00;0.00;;;;;;;;2;261080558;261080558;-80
2022/02/25 18:58:02;;;;;;;;;3.50;3.50;;;;;;;;2;288081919;288081919;-80
2022/02/25 19:06:17;;;;;;;;;0.00;0.00;;;;;;;;2;261077465;261077465;-79
2022/02/25 19:15:45;;;;;;;;;0.00;0.00;;;;;;;;2;288081156;288081156;-79
2022/02/25 19:24:00;;;;;;;;;0.00;0.00;;;;;;;;2;261077424;261077424;-79
2022/02/25 19:33:28;;;;;;;;;0.00;0.00;;;;;;;;2;288084080;288084080;-79
2022/02/25 19:41:43;;;;;;;;;0.00;0.00;;;;;;;;2;261073971;261073971;-79
2022/02/25 19:51:11;;;;;;;;;1.50;1.50;;;;;;;;2;288086292;288086292;-76
2022/02/25 19:59:27;;;;;;;;;0.00;0.00;;;;;;;;2;261073539;261073539;-76
2022/02/25 20:08:54;;;;;;;;;0.00;0.00;;;;;;;;2;288083601;288083601;-76
2022/02/25 20:17:10;;;;;;;;;0.00;0.00;;;;;;;;2;261080540;261080540;-76
2022/02/25 20:26:37;;;;;;;;;13.50;13.50;;;;;;;;2;288084223;288084223;-76
2022/02/25 20:34:53;;;;;;;;;17.00;16.00;;;;;;;;2;261078661;261078661;-76
2022/02/25 20:44:20;;;;;;;;;0.00;0.00;;;;;;;;2;288086837;288086837;-76
2022/02/25 20:52:36;;;;;;;;;1.00;1.00;;;;;;;;2;261078694;261078694;-76
2022/02/25 21:02:04;;;;;;;;;0.00;0.00;;;;;;;;2;288084737;288084737;-76
2022/02/25 21:10:20;;;;;;;;;1.50;1.50;;;;;;;;2;261076642;261076642;-76
2022/02/25 21:19:47;;;;;;;;;30.50;25.00;;;;;;;;2;288083272;288083272;-77
2022/02/25 21:28:03;;;;;;;;;74.50;69.00;;;;;;;;2;261077995;261077995;-76
2022/02/25 21:37:31;;;;;;;;;46.00;45.50;;;;;;;;2;288085617;288085617;-76
2022/02/25 21:45:46;;;;;;;;;121.00;121.00;;;;;;;;2;261077252;261077252;-76
2022/02/25 21:55:14;;;;;;;;;19.00;17.50;;;;;;;;2;288084569;288084569;-76
2022/02/25 22:03:29;;;;;;;;;1.00;1.00;;;;;;;;2;261077650;261077650;-76
2022/02/25 22:12:57;;;;;;;;;24.00;20.50;;;;;;;;2;288084722;288084722;-76
2022/02/25 22:21:12;;;;;;;;;53.50;51.50;;;;;;;;2;261075062;261075062;-75
2022/02/25 22:30:40;;;;;;;;;91.00;89.50;;;;;;;;2;288085730;288085730;-76
2022/02/25 22:38:55;;;;;;;;;97.00;97.00;;;;;;;;2;261078265;261078265;-77
2022/02/25 22:48:23;;;;;;;;;73.00;60.50;;;;;;;;2;288082063;288082063;-76
2022/02/25 23:15:03;;;;;;;;;108.00;104.50;;;;;;;;2;261076381;261076381;-76
2022/02/25 23:24:31;;;;;;;;;81.50;78.00;;;;;;;;2;288085498;288085498;-76
2022/02/25 23:32:47;;;;;;;;;89.50;89.50;;;;;;;;2;261079320;261079320;-76
2022/02/25 23:42:14;;;;;;;;;121.00;121.00;;;;;;;;2;288084406;288084406;-76
2022/02/25 23:50:30;;;;;;;;;135.50;126.00;;;;;;;;2;261074775;261074775;-76
2022/02/25 23:59:57;;;;;;;;;100.00;100.00;;;;;;;;2;288086411;288086411;-77
